Time;durP1;ratioP1;P1;durP2;ratioP2;P2;SDS_P1;SDS_P2;PMS_P1;PMS_P2;Temp;Humidity;BMP_temperature;BMP_pressure;BME280_temperature;BME280_humidity;BME280_pressure;Samples;Min_cycle;Max_cycle;Signal;HPM_P1;HPM_P2
2022/02/10 00:04:55;;;;;;;42.90;25.60;;;;;;;0.48;100.00;94159.97;5049363;28;20095;-78
2022/02/10 00:16:10;;;;;;;35.10;21.23;;;;;;;0.46;100.00;94171.13;5078783;28;20136;-78
2022/02/10 00:18:59;;;;;;;59.45;33.70;;;;;;;0.47;100.00;94175.25;5086134;28;20492;-78
2022/02/10 00:21:31;;;;;;;62.42;35.70;;;;;;;0.44;100.00;94170.44;5088164;28;20055;-78
2022/02/10 00:35:03;;;;;;;54.60;30.50;;;;;;;0.30;100.00;94179.13;5069166;28;20413;-81
2022/02/10 00:37:48;;;;;;;47.08;28.85;;;;;;;0.31;100.00;94179.00;5069436;28;20044;-81
2022/02/10 00:40:19;;;;;;;42.90;27.67;;;;;;;0.24;100.00;94170.31;5069456;28;20205;-81
2022/02/10 00:42:45;;;;;;;47.58;29.08;;;;;;;0.32;100.00;94187.41;5069340;28;20285;-80
2022/02/10 00:45:14;;;;;;;47.58;26.13;;;;;;;0.28;100.00;94184.34;5069361;28;20365;-81
2022/02/10 00:47:51;;;;;;;33.72;21.83;;;;;;;0.25;100.00;94184.56;5068773;28;20049;-81
2022/02/10 00:50:19;;;;;;;33.88;21.67;;;;;;;0.21;100.00;94178.94;5081129;28;20072;-80
2022/02/10 00:52:47;;;;;;;36.90;22.55;;;;;;;0.19;100.00;94180.00;5079197;28;20488;-80
2022/02/10 00:55:17;;;;;;;34.30;21.38;;;;;;;0.02;100.00;94153.53;5078736;28;20106;-80
2022/02/10 00:57:44;;;;;;;50.90;29.15;;;;;;;0.14;100.00;94185.41;4870086;28;5001315;-80
2022/02/10 01:00:36;;;;;;;52.65;29.58;;;;;;;0.12;100.00;94183.00;5082628;28;20045;-80
2022/02/10 01:11:47;;;;;;;29.05;16.77;;;;;;;0.03;100.00;94185.44;5072592;28;20169;-80
2022/02/10 01:14:35;;;;;;;29.50;17.80;;;;;;;-0.20;100.00;94145.94;5072829;28;20048;-80
2022/02/10 01:30:44;;;;;;;38.90;26.67;;;;;;;-0.34;100.00;94181.53;5072508;28;20514;-79
2022/02/10 01:33:12;;;;;;;32.75;21.83;;;;;;;-0.55;100.00;94162.09;5072546;28;20047;-79
2022/02/10 01:35:40;;;;;;;35.67;23.30;;;;;;;-0.57;100.00;94169.78;5072186;28;20396;-79
2022/02/10 01:38:07;;;;;;;38.38;25.08;;;;;;;-0.63;100.00;94155.09;5072382;28;20119;-79
2022/02/10 01:40:56;;;;;;;42.22;26.80;;;;;;;-0.60;100.00;94164.16;5072452;28;20056;-79
2022/02/10 02:05:34;;;;;;;34.17;22.77;;;;;;;-0.57;100.00;94149.59;5071975;28;20071;-78
2022/02/10 02:08:03;;;;;;;34.87;22.07;;;;;;;-0.58;100.00;94150.50;5071622;28;20044;-78
2022/02/10 02:10:30;;;;;;;32.17;21.98;;;;;;;-0.63;100.00;94157.63;5071050;28;20131;-78
2022/02/10 02:12:57;;;;;;;31.08;21.63;;;;;;;-0.73;100.00;94146.63;5071816;28;20044;-78
2022/02/10 02:15:25;;;;;;;29.77;21.13;;;;;;;-0.85;100.00;94138.25;5072042;28;20442;-78
2022/02/10 02:17:51;;;;;;;26.17;16.30;;;;;;;-0.74;100.00;94155.91;5071714;28;20115;-78
2022/02/10 02:20:18;;;;;;;30.15;18.38;;;;;;;-0.83;100.00;94144.00;5071597;28;20037;-78
2022/02/10 02:22:47;;;;;;;26.38;16.73;;;;;;;-0.87;100.00;94148.50;5071693;28;20044;-77
2022/02/10 02:25:14;;;;;;;20.35;14.00;;;;;;;-0.88;100.00;94156.16;5071954;28;20053;-77
2022/02/10 02:27:45;;;;;;;22.05;14.50;;;;;;;-0.97;100.00;94145.84;5071362;28;20143;-77
2022/02/10 02:30:21;;;;;;;25.77;16.27;;;;;;;-0.96;100.00;94144.13;5071930;28;20075;-77
2022/02/10 02:33:11;;;;;;;24.80;16.15;;;;;;;-1.02;100.00;94126.94;5071486;28;20047;-77
2022/02/10 02:35:50;;;;;;;34.33;18.67;;;;;;;-1.13;100.00;94112.59;5071077;28;20045;-77
2022/02/10 02:38:38;;;;;;;39.03;22.13;;;;;;;-0.98;100.00;94140.91;5071481;28;20159;-77
2022/02/10 03:05:59;;;;;;;25.58;16.85;;;;;;;-1.33;100.00;94134.25;5070933;28;20059;-77
2022/02/10 03:08:27;;;;;;;25.52;17.17;;;;;;;-1.32;100.00;94138.38;5071079;28;20041;-77
2022/02/10 03:11:02;;;;;;;19.58;12.80;;;;;;;-1.34;100.00;94148.59;5071054;28;20068;-77
2022/02/10 03:13:33;;;;;;;17.25;12.70;;;;;;;-1.40;100.00;94141.47;5070778;28;20044;-77
2022/02/10 03:16:20;;;;;;;20.38;12.82;;;;;;;-1.45;100.00;94151.91;5070783;28;20127;-77
2022/02/10 03:18:55;;;;;;;22.58;14.13;;;;;;;-1.80;100.00;94112.44;5070731;28;20045;-77
2022/02/10 03:21:39;;;;;;;17.20;13.05;;;;;;;-1.54;100.00;94152.56;5070802;28;20094;-77
2022/02/10 04:02:52;;;;;;;18.05;12.30;;;;;;;-1.93;100.00;94147.78;5075833;28;20039;-77
2022/02/10 04:08:30;;;;;;;17.33;11.25;;;;;;;-2.01;100.00;94148.34;5067114;28;20197;-77
2022/02/10 04:11:23;;;;;;;18.35;11.38;;;;;;;-2.17;100.00;94134.31;5104325;27;20400;-77
2022/02/10 04:13:59;;;;;;;16.58;10.23;;;;;;;-2.18;100.00;94142.78;5110463;28;20047;-77
2022/02/10 04:16:31;;;;;;;13.05;9.32;;;;;;;-2.19;100.00;94135.31;5110469;28;20116;-77
2022/02/10 04:21:57;;;;;;;29.48;17.80;;;;;;;-2.15;100.00;94145.09;5110101;28;20042;-77
2022/02/10 04:24:41;;;;;;;;;;;;;;;-2.14;100.00;94143.34;5110240;28;20084;-77
2022/02/10 04:27:15;;;;;;;38.80;19.33;;;;;;;-2.22;100.00;94145.63;5109892;28;19984;-77
2022/02/10 04:37:12;;;;;;;26.65;16.05;;;;;;;-2.34;100.00;94114.56;5110176;28;20047;-78
2022/02/10 04:55:07;;;;;;;29.35;19.10;;;;;;;-2.34;100.00;94158.16;5089309;28;19927;-78
2022/02/10 04:57:50;;;;;;;31.23;20.20;;;;;;;-2.33;100.00;94153.91;5089292;28;20502;-77
2022/02/10 05:00:34;;;;;;;58.03;32.83;;;;;;;-2.53;100.00;94160.34;5089411;28;20044;-78
2022/02/10 05:06:20;;;;;;;147.75;75.40;;;;;;;-2.72;100.00;94169.16;5089442;28;20043;-78
2022/02/10 05:20:20;;;;;;;94.50;54.20;;;;;;;-2.95;100.00;94164.75;5067998;28;20491;-78
2022/02/10 05:23:03;;;;;;;70.30;42.30;;;;;;;-2.87;100.00;94171.78;5089098;28;20048;-79
2022/02/10 05:33:51;;;;;;;121.30;62.72;;;;;;;-2.75;100.00;94185.25;5089189;28;20050;-80
2022/02/10 05:36:22;;;;;;;103.60;57.03;;;;;;;-2.95;100.00;94154.69;5088756;28;20445;-79
2022/02/10 05:38:55;;;;;;;95.70;52.38;;;;;;;-2.75;100.00;94194.50;5089214;28;20036;-79
2022/02/10 05:44:28;;;;;;;78.50;43.50;;;;;;;-2.89;100.00;94197.94;5088669;28;20047;-79
2022/02/10 05:47:20;;;;;;;82.72;43.95;;;;;;;-3.16;100.00;94156.16;5091439;28;20077;-79
2022/02/10 05:50:23;;;;;;;70.93;40.65;;;;;;;-2.89;100.00;94200.44;5092461;28;20040;-79
2022/02/10 05:53:13;;;;;;;102.80;54.58;;;;;;;-2.92;100.00;94190.63;5092185;28;20043;-79
2022/02/10 05:55:48;;;;;;;84.75;48.00;;;;;;;-2.82;100.00;94201.66;5092454;28;20518;-79
2022/02/10 05:58:23;;;;;;;62.92;36.67;;;;;;;-2.81;100.00;94203.28;5092205;28;20476;-79
2022/02/10 06:01:41;;;;;;;52.53;30.58;;;;;;;-2.74;100.00;94199.44;5092265;28;20127;-80
2022/02/10 06:48:33;;;;;;;56.03;33.13;;;;;;;-1.65;100.00;94207.06;5091613;28;20055;-79
2022/02/10 06:51:09;;;;;;;44.80;27.90;;;;;;;-1.53;100.00;94194.50;5090900;28;20134;-79
2022/02/10 06:53:54;;;;;;;34.60;23.48;;;;;;;-1.45;100.00;94193.94;5091149;28;20050;-79
2022/02/10 07:52:16;;;;;;;103.20;62.78;;;;;;;-0.22;100.00;94185.66;5058406;28;20077;-82
2022/02/10 07:54:48;;;;;;;96.68;53.25;;;;;;;-0.14;100.00;94169.88;5089871;28;20044;-83
2022/02/10 07:57:24;;;;;;;82.72;50.28;;;;;;;0.08;100.00;94175.78;5089906;28;20585;-83
2022/02/10 08:58:17;;;;;;;89.97;41.70;;;;;;;2.45;100.00;94164.69;5089062;28;20138;-80
2022/02/10 09:03:30;;;;;;;87.85;38.47;;;;;;;2.76;100.00;94174.63;5065458;28;20067;-80
2022/02/10 09:06:01;;;;;;;104.32;40.10;;;;;;;3.00;100.00;94173.38;5088698;28;20048;-80
2022/02/10 09:14:17;;;;;;;119.55;41.10;;;;;;;3.21;100.00;94179.97;5088914;28;20520;-79
2022/02/10 09:55:55;;;;;;;101.45;40.63;;;;;;;5.94;100.00;94146.34;5049567;28;20129;-84
2022/02/10 09:58:43;;;;;;;90.22;36.67;;;;;;;6.16;100.00;94132.22;5049209;28;20052;-84
2022/02/10 10:01:17;;;;;;;102.85;41.08;;;;;;;6.19;100.00;94097.91;5090946;28;20071;-84
2022/02/10 10:03:56;;;;;;;73.90;29.77;;;;;;;6.72;100.00;94131.53;5112054;28;20577;-84
2022/02/10 10:06:43;;;;;;;42.78;18.15;;;;;;;6.65;100.00;94103.28;5112428;28;20466;-84
2022/02/10 10:09:25;;;;;;;33.67;15.80;;;;;;;6.99;100.00;94119.31;5112253;28;20134;-84
2022/02/10 10:12:27;;;;;;;511.77;187.77;;;;;;;7.26;100.00;94124.19;5112126;28;20053;-84
2022/02/10 10:15:18;;;;;;;95.95;32.17;;;;;;;7.18;100.00;94077.25;5112386;28;20526;-85
2022/02/10 10:18:20;;;;;;;40.80;15.65;;;;;;;7.72;99.05;94126.03;5112264;28;20040;-85
2022/02/10 10:21:12;;;;;;;46.80;15.00;;;;;;;7.66;97.83;94073.81;5112166;28;20040;-85
2022/02/10 10:23:55;;;;;;;50.40;17.83;;;;;;;8.11;95.91;94112.34;5112176;28;20127;-83
2022/02/10 10:52:22;;;;;;;59.88;24.83;;;;;;;8.74;89.13;94067.81;5108802;28;20510;-83
2022/02/10 10:54:59;;;;;;;49.70;18.65;;;;;;;8.98;90.05;94086.44;5108844;28;20040;-83
2022/02/10 10:57:29;;;;;;;72.93;31.00;;;;;;;8.86;89.59;94073.28;5108536;28;20074;-83
2022/02/10 11:00:25;;;;;;;48.55;18.23;;;;;;;8.74;86.53;94080.59;5111262;28;20036;-83
2022/02/10 11:36:30;;;;;;;21.08;8.35;;;;;;;9.87;80.53;93981.22;5089626;28;20047;-83
2022/02/10 11:39:21;;;;;;;22.50;9.70;;;;;;;10.35;82.22;94023.41;5089353;28;20513;-83
2022/02/10 11:42:39;;;;;;;15.57;8.63;;;;;;;10.33;78.63;94010.78;5088061;28;20056;-83
2022/02/10 12:01:11;;;;;;;16.42;8.05;;;;;;;11.05;78.03;93972.00;5107391;28;20086;-83
2022/02/10 12:43:40;;;;;;;21.67;7.95;;;;;;;11.15;68.52;93965.69;5083286;28;20047;-83
2022/02/10 13:23:16;;;;;;;7.15;3.60;;;;;;;11.83;67.31;93953.69;5088510;28;20109;-84
2022/02/10 14:12:59;;;;;;;5.45;2.60;;;;;;;11.48;67.58;93916.88;5084626;28;20052;-83
2022/02/10 14:18:20;;;;;;;5.13;2.20;;;;;;;11.32;67.09;93889.75;5082860;28;20062;-81
2022/02/10 14:21:00;;;;;;;4.38;1.98;;;;;;;11.46;70.03;93911.13;5084350;28;20084;-83
2022/02/10 14:28:51;;;;;;;4.30;2.80;;;;;;;11.41;67.41;93907.56;5068537;28;20395;-82
2022/02/10 14:31:19;;;;;;;8.68;2.72;;;;;;;11.35;67.22;93914.28;5071478;28;20059;-82
2022/02/10 14:33:47;;;;;;;7.18;2.40;;;;;;;11.13;66.48;93878.47;5071595;28;20049;-82
2022/02/10 14:36:19;;;;;;;8.15;3.67;;;;;;;11.23;66.69;93893.50;5070443;28;20091;-82
2022/02/10 14:38:54;;;;;;;5.20;3.13;;;;;;;11.27;66.60;93906.75;5071365;28;20091;-82
2022/02/10 14:42:08;;;;;;;6.32;2.80;;;;;;;11.21;67.46;93896.25;5070978;28;20044;-81
2022/02/10 15:21:07;;;;;;;20.05;11.25;;;;;;;10.49;72.69;93859.91;5148937;27;20899;-82
2022/02/10 15:46:26;;;;;;;18.15;12.13;;;;;;;9.83;77.30;93880.72;5135709;27;20413;-83
2022/02/10 16:11:01;;;;;;;51.22;26.52;;;;;;;8.64;80.54;93893.13;5136525;27;20554;-83
2022/02/10 16:18:53;;;;;;;67.25;32.03;;;;;;;8.26;81.61;93901.72;5132501;27;20058;-83
2022/02/10 16:21:30;;;;;;;57.40;31.40;;;;;;;8.02;81.57;93881.31;5131668;27;20507;-83
2022/02/10 16:24:01;;;;;;;34.28;17.63;;;;;;;8.02;81.60;93901.03;5142526;27;20079;-83
2022/02/10 16:26:41;;;;;;;25.27;13.52;;;;;;;7.73;82.02;93880.34;5128028;27;20442;-83
2022/02/10 16:29:10;;;;;;;38.85;19.75;;;;;;;7.80;82.91;93903.47;5142850;27;20043;-83
2022/02/10 16:31:37;;;;;;;64.65;35.75;;;;;;;7.69;83.70;93914.13;5135466;27;20047;-83
2022/02/10 16:34:06;;;;;;;60.47;33.40;;;;;;;7.46;87.91;93885.06;5134728;27;20043;-84
2022/02/10 16:36:33;;;;;;;35.50;19.65;;;;;;;7.46;88.61;93895.28;5123236;27;20043;-83
2022/02/10 16:39:00;;;;;;;26.60;15.88;;;;;;;7.42;90.27;93911.16;5117303;27;20061;-85
2022/02/10 16:41:28;;;;;;;28.20;15.88;;;;;;;7.33;90.68;93912.97;5121940;27;20047;-83
2022/02/10 16:43:56;;;;;;;23.73;13.77;;;;;;;7.20;91.19;93900.78;5128049;27;20146;-83
2022/02/10 16:46:23;;;;;;;18.45;11.60;;;;;;;7.09;91.64;93896.88;5119635;27;20058;-83
2022/02/10 16:48:50;;;;;;;18.67;10.07;;;;;;;6.91;91.91;93892.03;5120709;27;20482;-83
2022/02/10 16:51:19;;;;;;;16.17;9.63;;;;;;;6.92;93.10;93911.50;5114035;28;20044;-83
2022/02/10 16:53:51;;;;;;;12.73;8.25;;;;;;;6.79;93.01;93902.66;5113795;28;20051;-83
2022/02/10 16:56:22;;;;;;;11.82;6.95;;;;;;;6.74;93.31;93912.56;5113885;28;20070;-83
2022/02/10 16:59:01;;;;;;;12.38;7.32;;;;;;;6.66;93.90;93918.50;5113531;28;20047;-82
2022/02/10 17:18:28;;;;;;;31.52;19.13;;;;;;;6.06;96.58;93923.19;5048529;28;20591;-83
2022/02/10 17:21:14;;;;;;;45.42;26.80;;;;;;;5.96;96.46;93930.22;5048553;28;20432;-83
2022/02/10 17:26:46;;;;;;;80.60;42.75;;;;;;;5.81;96.30;93928.34;5075807;27;20082;-83
2022/02/10 17:29:26;;;;;;;65.47;38.25;;;;;;;5.78;96.74;93927.88;5117848;27;20048;-82
2022/02/10 17:32:07;;;;;;;55.40;32.40;;;;;;;5.66;97.25;93922.31;5117564;27;20135;-83
2022/02/10 17:34:51;;;;;;;43.10;23.70;;;;;;;5.69;96.74;93932.97;5117149;27;20123;-82
2022/02/10 17:41:16;;;;;;;33.03;18.50;;;;;;;5.65;96.75;93941.88;5118975;27;20055;-83
2022/02/10 17:46:06;;;;;;;23.10;14.00;;;;;;;5.17;97.01;93894.16;5143572;27;20387;-81
2022/02/10 17:51:32;;;;;;;25.55;14.18;;;;;;;5.27;96.19;93927.09;5127612;28;20050;-81
2022/02/10 17:54:03;;;;;;;38.78;21.15;;;;;;;5.06;96.04;93915.59;5127546;28;20049;-80
2022/02/10 17:56:31;;;;;;;55.80;27.35;;;;;;;5.04;95.89;93925.16;5127381;28;20487;-81
2022/02/10 17:58:58;;;;;;;54.78;28.70;;;;;;;4.95;97.50;93934.53;5127480;28;20039;-81
2022/02/10 18:01:27;;;;;;;54.90;29.73;;;;;;;4.79;98.23;93917.50;5139642;27;20035;-81
2022/02/10 18:03:54;;;;;;;42.78;22.60;;;;;;;4.84;98.10;93929.75;5148281;27;20039;-83
2022/02/10 18:06:23;;;;;;;43.35;22.15;;;;;;;4.78;98.81;93930.38;5147927;27;20045;-83
2022/02/10 18:14:46;;;;;;;54.88;28.55;;;;;;;4.52;98.02;93926.16;5063729;28;20056;-84
2022/02/10 18:17:21;;;;;;;84.77;39.93;;;;;;;4.43;97.03;93917.72;5063466;28;20419;-83
2022/02/10 18:19:52;;;;;;;65.53;34.92;;;;;;;4.08;96.49;93896.59;5109123;27;20055;-83
2022/02/10 18:25:12;;;;;;;91.97;49.50;;;;;;;3.89;98.73;93931.44;5129137;27;20051;-83
2022/02/10 18:27:45;;;;;;;130.55;69.68;;;;;;;3.56;99.60;93905.88;5147170;27;20043;-83
2022/02/10 18:30:23;;;;;;;134.90;73.32;;;;;;;3.41;100.00;93931.78;5147700;27;20425;-83
2022/02/10 19:08:58;;;;;;;64.43;36.08;;;;;;;2.81;100.00;93943.31;5132708;27;20054;-84
2022/02/10 19:11:25;;;;;;;66.57;35.58;;;;;;;2.88;100.00;93951.94;5132530;27;20049;-83
2022/02/10 19:13:53;;;;;;;48.33;27.38;;;;;;;2.78;100.00;93934.25;5132630;27;20644;-84
2022/02/10 19:16:22;;;;;;;42.35;24.05;;;;;;;2.77;100.00;93934.38;5132500;27;20039;-84
2022/02/10 19:18:49;;;;;;;39.30;23.00;;;;;;;2.94;100.00;93953.13;5132587;27;20050;-83
2022/02/10 19:21:18;;;;;;;39.75;21.95;;;;;;;2.66;100.00;93920.19;5132680;27;20035;-84
2022/02/10 19:23:45;;;;;;;59.03;27.67;;;;;;;2.71;100.00;93919.75;5132496;27;20043;-84
2022/02/10 19:26:11;;;;;;;52.03;24.98;;;;;;;2.96;100.00;93958.84;5132512;27;20050;-84
2022/02/10 19:28:38;;;;;;;48.70;25.05;;;;;;;3.00;100.00;93965.25;5132399;27;20051;-84
2022/02/10 19:31:07;;;;;;;42.65;21.30;;;;;;;2.69;100.00;93904.69;5132802;27;20046;-84
2022/02/10 19:33:34;;;;;;;46.15;23.38;;;;;;;2.75;100.00;93921.88;5132810;27;20385;-84
2022/02/10 19:36:01;;;;;;;41.45;23.00;;;;;;;2.80;100.00;93926.50;5132223;27;20045;-84
2022/02/10 19:38:31;;;;;;;46.97;24.27;;;;;;;2.99;100.00;93961.09;5140154;27;20038;-81
2022/02/10 19:41:05;;;;;;;45.80;24.30;;;;;;;2.96;100.00;93963.91;5142259;27;20050;-83
2022/02/10 19:43:38;;;;;;;46.78;23.33;;;;;;;2.88;100.00;93949.41;5138729;27;20042;-82
2022/02/10 19:46:06;;;;;;;50.92;26.58;;;;;;;2.83;100.00;93930.50;5141963;27;20102;-82
2022/02/10 19:48:34;;;;;;;38.47;21.20;;;;;;;2.60;100.00;93913.94;5146135;27;20138;-83
2022/02/10 19:51:01;;;;;;;30.05;17.13;;;;;;;2.54;100.00;93911.97;5146906;27;20054;-83
2022/02/10 19:53:30;;;;;;;35.03;21.30;;;;;;;2.65;100.00;93932.06;5153091;27;20047;-83
2022/02/10 19:55:57;;;;;;;34.88;21.05;;;;;;;2.75;100.00;93944.72;5152869;27;20051;-83
2022/02/10 19:58:25;;;;;;;35.53;20.35;;;;;;;2.76;100.00;93948.84;5152248;27;20047;-84
2022/02/10 20:00:57;;;;;;;34.30;20.85;;;;;;;2.77;100.00;93957.22;5144844;27;20121;-83
2022/02/10 20:03:26;;;;;;;35.40;20.48;;;;;;;2.56;100.00;93920.25;5132012;27;20130;-83
2022/02/10 20:05:53;;;;;;;41.30;23.48;;;;;;;2.75;100.00;93947.25;5131683;27;20119;-83
2022/02/10 20:08:21;;;;;;;44.30;24.30;;;;;;;2.69;100.00;93941.94;5130919;27;20054;-83
2022/02/10 20:10:53;;;;;;;42.75;23.98;;;;;;;2.62;100.00;93945.03;5132000;27;20043;-83
2022/02/10 20:13:21;;;;;;;43.35;23.38;;;;;;;2.35;100.00;93923.81;5131552;27;20483;-84
2022/02/10 20:15:50;;;;;;;42.92;22.05;;;;;;;2.24;100.00;93919.75;5131395;27;20491;-83
2022/02/10 20:18:18;;;;;;;44.38;23.45;;;;;;;2.25;100.00;93933.19;5131557;27;20047;-84
2022/02/10 20:20:46;;;;;;;43.33;22.00;;;;;;;2.43;100.00;93960.34;5131754;27;20039;-83
2022/02/10 20:23:14;;;;;;;50.10;23.08;;;;;;;2.27;100.00;93934.66;5131448;27;20050;-84
2022/02/10 20:25:40;;;;;;;36.75;19.13;;;;;;;2.40;100.00;93947.03;5131749;27;20721;-81
2022/02/10 20:28:09;;;;;;;34.63;20.08;;;;;;;2.40;100.00;93959.69;5131730;27;20100;-81
2022/02/10 20:30:37;;;;;;;39.40;21.08;;;;;;;2.31;100.00;93940.25;5131863;27;20096;-81
2022/02/10 20:33:04;;;;;;;42.75;23.85;;;;;;;2.35;100.00;93949.19;5131480;27;20054;-81
2022/02/10 20:35:32;;;;;;;44.88;22.83;;;;;;;2.18;100.00;93924.56;5131092;27;20126;-81
2022/02/10 20:38:02;;;;;;;34.53;19.60;;;;;;;2.17;100.00;93922.97;5131054;27;20554;-81
2022/02/10 20:40:30;;;;;;;34.20;19.15;;;;;;;2.40;100.00;93949.56;5131425;27;20054;-81
2022/02/10 20:43:04;;;;;;;32.42;16.92;;;;;;;2.20;100.00;93920.16;5131350;27;20043;-80
2022/02/10 20:45:33;;;;;;;24.45;13.50;;;;;;;2.20;100.00;93910.81;5131388;27;20055;-81
2022/02/10 20:48:00;;;;;;;25.27;14.70;;;;;;;2.22;100.00;93900.56;5130745;27;20050;-80
2022/02/10 20:50:27;;;;;;;28.65;18.70;;;;;;;2.30;100.00;93912.53;5130976;27;20054;-81
2022/02/10 20:52:54;;;;;;;27.63;17.85;;;;;;;2.34;100.00;93926.50;5130519;27;20074;-80
2022/02/10 20:55:21;;;;;;;28.13;17.13;;;;;;;2.06;100.00;93885.94;5131275;27;20051;-80
2022/02/10 20:57:48;;;;;;;28.85;17.50;;;;;;;2.19;100.00;93910.97;5131037;27;20096;-80
2022/02/10 21:00:17;;;;;;;29.60;19.67;;;;;;;2.07;100.00;93917.94;5131064;27;20130;-81
2022/02/10 21:02:47;;;;;;;55.20;30.77;;;;;;;1.96;100.00;93917.19;5129391;27;20467;-80
2022/02/10 21:05:30;;;;;;;39.70;28.13;;;;;;;1.77;100.00;93909.66;5035161;28;20045;-80
2022/02/10 21:08:06;;;;;;;43.50;28.70;;;;;;;1.60;100.00;93912.75;5049199;28;20547;-81
2022/02/10 21:10:35;;;;;;;57.70;32.03;;;;;;;1.05;100.00;93858.50;5049697;28;20041;-80
2022/02/10 21:13:02;;;;;;;63.53;33.08;;;;;;;0.83;100.00;93862.09;5049375;28;20045;-80
2022/02/10 21:15:33;;;;;;;143.18;59.63;;;;;;;1.13;100.00;93908.44;5049681;28;20045;-80
2022/02/10 21:18:03;;;;;;;63.72;33.25;;;;;;;1.19;100.00;93909.59;5049807;28;20116;-80
2022/02/10 21:20:32;;;;;;;64.50;35.97;;;;;;;1.00;100.00;93883.41;5049131;28;20041;-80
2022/02/10 21:23:13;;;;;;;76.35;44.50;;;;;;;1.15;100.00;93885.53;5049265;28;20049;-80
2022/02/10 21:25:41;;;;;;;64.07;37.47;;;;;;;1.20;100.00;93865.66;5048861;28;20041;-80
2022/02/10 21:28:16;;;;;;;53.28;30.17;;;;;;;1.46;100.00;93882.81;5049501;28;20107;-81
2022/02/10 21:30:44;;;;;;;52.42;28.20;;;;;;;1.54;100.00;93879.59;5043653;28;20041;-80
2022/02/10 21:33:20;;;;;;;40.53;21.95;;;;;;;1.64;100.00;93880.34;5046161;28;20481;-80
2022/02/10 21:38:33;;;;;;;32.13;18.77;;;;;;;1.71;100.00;93862.88;5049799;28;20141;-80
2022/02/10 21:41:28;;;;;;;42.38;24.05;;;;;;;1.86;100.00;93870.81;5049746;28;20408;-80
2022/02/10 21:55:37;;;;;;;43.67;24.35;;;;;;;1.52;100.00;93854.41;5006862;28;20053;-79
2022/02/10 22:04:16;;;;;;;34.22;20.40;;;;;;;1.60;100.00;93853.72;5049431;28;20055;-80
2022/02/10 22:07:29;;;;;;;28.65;19.05;;;;;;;1.53;100.00;93837.47;5049198;28;20052;-80
2022/02/10 22:09:51;;;;;;;30.35;18.20;;;;;;;1.67;100.00;93856.50;5049123;28;20055;-79
2022/02/10 22:20:42;;;;;;;32.28;18.73;;;;;;;1.42;100.00;93854.44;5047968;28;20132;-79
2022/02/10 22:23:17;;;;;;;30.83;16.88;;;;;;;1.38;100.00;93854.84;5048660;28;20076;-79
2022/02/10 22:25:44;;;;;;;29.60;16.40;;;;;;;1.41;100.00;93850.31;5048804;28;20052;-79
2022/02/10 22:28:24;;;;;;;33.10;16.70;;;;;;;1.46;100.00;93849.88;5048545;28;20041;-80
2022/02/10 22:30:59;;;;;;;26.55;14.75;;;;;;;1.52;100.00;93853.63;5049159;28;20041;-79
2022/02/10 22:33:39;;;;;;;22.20;12.13;;;;;;;1.55;100.00;93856.66;5052549;28;20056;-82
2022/02/10 22:36:08;;;;;;;48.88;22.88;;;;;;;1.63;100.00;93850.09;5049208;28;20052;-82
2022/02/10 22:38:36;;;;;;;34.35;17.70;;;;;;;1.43;100.00;93818.03;5050624;28;20091;-81
2022/02/10 22:41:09;;;;;;;36.22;18.42;;;;;;;1.62;100.00;93833.31;5051657;28;20131;-82
2022/02/10 22:43:36;;;;;;;31.55;16.25;;;;;;;1.77;100.00;93838.72;5052314;28;20132;-81
2022/02/10 22:46:03;;;;;;;28.73;16.33;;;;;;;1.65;100.00;93817.81;5052002;28;20500;-81
2022/02/10 22:48:30;;;;;;;23.45;13.30;;;;;;;1.65;100.00;93817.81;5052200;28;20389;-81
2022/02/10 22:50:56;;;;;;;28.25;15.05;;;;;;;1.81;100.00;93845.09;5052221;28;20045;-82
2022/02/10 22:53:23;;;;;;;24.45;14.23;;;;;;;1.85;100.00;93844.69;5052128;28;20041;-81
2022/02/10 22:55:51;;;;;;;22.40;13.40;;;;;;;1.87;100.00;93835.19;5051978;28;20044;-81
2022/02/10 22:58:18;;;;;;;23.95;12.02;;;;;;;1.85;100.00;93824.41;5052634;28;20142;-81
2022/02/10 23:00:47;;;;;;;27.92;15.32;;;;;;;1.87;100.00;93839.47;5052176;28;20041;-81
2022/02/10 23:03:15;;;;;;;76.30;38.88;;;;;;;1.41;100.00;93834.31;5051681;28;20077;-82
2022/02/10 23:05:42;;;;;;;65.68;33.33;;;;;;;1.17;100.00;93831.28;5051362;28;20047;-81
2022/02/10 23:08:10;;;;;;;65.65;34.28;;;;;;;1.13;100.00;93829.19;5051880;28;20049;-81
2022/02/10 23:10:46;;;;;;;97.78;47.80;;;;;;;1.05;100.00;93829.84;5051652;28;20042;-81
2022/02/10 23:13:15;;;;;;;;;;;;;;;1.03;100.00;93824.13;5051960;28;20049;-81
2022/02/10 23:15:43;;;;;;;69.63;35.00;;;;;;;0.91;100.00;93826.81;5051158;28;20386;-81
2022/02/10 23:18:12;;;;;;;68.95;34.60;;;;;;;0.80;100.00;93794.88;5051555;28;20045;-81
2022/02/10 23:20:40;;;;;;;67.32;31.42;;;;;;;0.84;100.00;93790.38;5051666;28;20049;-81
2022/02/10 23:23:08;;;;;;;47.40;25.05;;;;;;;1.11;100.00;93820.94;5051523;28;20210;-82
2022/02/10 23:25:36;;;;;;;55.17;29.08;;;;;;;1.24;100.00;93821.44;5051265;28;20041;-82
2022/02/10 23:28:05;;;;;;;56.35;29.73;;;;;;;0.99;100.00;93817.75;5051463;28;20067;-82
2022/02/10 23:30:33;;;;;;;53.10;28.85;;;;;;;1.10;100.00;93815.06;5051570;28;20044;-82
2022/02/10 23:33:07;;;;;;;60.40;34.92;;;;;;;0.95;100.00;93814.69;5051054;28;20041;-81
2022/02/10 23:38:21;;;;;;;122.05;60.67;;;;;;;0.64;100.00;93810.59;5051177;28;20056;-82
2022/02/10 23:41:14;;;;;;;112.50;59.20;;;;;;;0.38;100.00;93782.53;5051233;28;20051;-81
2022/02/10 23:43:39;;;;;;;113.05;57.50;;;;;;;0.54;100.00;93802.22;5050852;28;20045;-80
2022/02/10 23:46:07;;;;;;;126.47;61.10;;;;;;;0.34;100.00;93803.94;5051343;28;20079;-81
2022/02/10 23:48:36;;;;;;;119.80;62.63;;;;;;;0.07;100.00;93797.78;5051257;28;20052;-81
2022/02/10 23:51:03;;;;;;;142.38;70.68;;;;;;;0.01;100.00;93816.78;5051132;28;20067;-81
2022/02/10 23:53:30;;;;;;;169.57;82.97;;;;;;;-0.07;100.00;93819.97;5051170;28;20048;-81
2022/02/10 23:55:59;;;;;;;189.88;91.20;;;;;;;-0.41;100.00;93817.75;5050915;28;20040;-81
2022/02/10 23:58:34;;;;;;;190.45;92.07;;;;;;;-0.40;100.00;93819.34;5050837;28;20395;-81
